Time;durP1;ratioP1;P1;durP2;ratioP2;P2;SDS_P1;SDS_P2;PMS_P1;PMS_P2;Temp;Humidity;BMP_temperature;BMP_pressure;BME280_temperature;BME280_humidity;BME280_pressure;Samples;Min_cycle;Max_cycle;Signal;HPM_P1;HPM_P2
2023/05/13 00:01:02;;;;;;;0.47;0.47;;;;;;;12.13;69.96;97725.13;5064728;28;20065;-72
2023/05/13 00:03:32;;;;;;;0.57;0.57;;;;;;;12.24;69.35;97726.41;5068759;28;20078;-73
2023/05/13 00:06:00;;;;;;;0.50;0.50;;;;;;;12.15;69.67;97724.09;5064616;28;20471;-72
2023/05/13 00:08:27;;;;;;;0.50;0.50;;;;;;;12.25;69.54;97716.53;5067922;28;20101;-72
2023/05/13 00:10:55;;;;;;;0.63;0.63;;;;;;;12.38;68.98;97725.38;5065975;28;20040;-72
2023/05/13 00:13:22;;;;;;;0.15;0.15;;;;;;;12.38;69.02;97719.19;5066493;28;20388;-72
2023/05/13 00:15:50;;;;;;;0.52;0.52;;;;;;;12.28;69.30;97714.25;5068318;28;20116;-72
2023/05/13 00:18:17;;;;;;;0.57;0.57;;;;;;;12.25;69.22;97711.97;5066805;28;20045;-72
2023/05/13 00:20:46;;;;;;;0.52;0.52;;;;;;;12.18;70.03;97718.31;5068952;28;20548;-73
2023/05/13 00:23:14;;;;;;;0.50;0.50;;;;;;;12.06;70.48;97718.09;5067335;28;20099;-72
2023/05/13 00:25:43;;;;;;;0.60;0.60;;;;;;;12.13;70.14;97716.28;5070041;28;20106;-73
2023/05/13 00:28:12;;;;;;;0.50;0.50;;;;;;;12.19;69.85;97719.97;5071158;28;20040;-73
2023/05/13 00:30:41;;;;;;;0.10;0.10;;;;;;;12.01;69.88;97723.22;5071654;28;20404;-73
2023/05/13 00:33:09;;;;;;;0.63;0.63;;;;;;;12.05;70.26;97719.94;5065712;28;20086;-73
2023/05/13 00:35:36;;;;;;;0.43;0.43;;;;;;;11.94;70.51;97717.84;5071929;28;20044;-73
2023/05/13 00:38:06;;;;;;;0.65;0.65;;;;;;;12.04;71.51;97722.84;5072815;28;20048;-73
2023/05/13 00:40:38;;;;;;;0.40;0.40;;;;;;;12.03;71.93;97727.34;5075454;28;20056;-72
2023/05/13 00:43:05;;;;;;;0.13;0.13;;;;;;;11.92;72.74;97724.44;5072150;28;20380;-72
2023/05/13 00:45:33;;;;;;;0.60;0.60;;;;;;;11.85;72.97;97721.72;5072093;28;20078;-72
2023/05/13 00:48:00;;;;;;;0.63;0.63;;;;;;;11.88;72.90;97726.66;5071696;28;20044;-72
2023/05/13 00:50:28;;;;;;;0.57;0.57;;;;;;;11.75;73.71;97723.94;5066299;28;20044;-72
2023/05/13 00:52:57;;;;;;;0.70;0.70;;;;;;;11.57;74.40;97719.09;5068412;28;20043;-72
2023/05/13 00:55:26;;;;;;;0.68;0.68;;;;;;;11.64;74.27;97725.28;5060076;28;20044;-72
2023/05/13 00:57:53;;;;;;;0.20;0.20;;;;;;;11.72;74.21;97718.97;5066945;28;20454;-72
2023/05/13 01:00:21;;;;;;;0.55;0.55;;;;;;;11.70;73.78;97719.16;5071738;28;20032;-72
2023/05/13 01:02:53;;;;;;;0.60;0.60;;;;;;;11.72;73.94;97718.97;5065800;28;20090;-72
2023/05/13 01:05:31;;;;;;;0.80;0.80;;;;;;;11.71;74.44;97720.81;5063115;28;20139;-72
2023/05/13 01:08:02;;;;;;;0.90;0.90;;;;;;;11.81;74.06;97727.69;5067636;28;20040;-72
2023/05/13 01:10:36;;;;;;;0.68;0.68;;;;;;;11.77;74.18;97725.38;5065743;28;20048;-72
2023/05/13 01:13:08;;;;;;;0.50;0.50;;;;;;;11.75;74.45;97726.59;5063450;28;20032;-72
2023/05/13 01:15:40;;;;;;;0.52;0.52;;;;;;;11.67;74.98;97726.75;5064520;28;20124;-72
2023/05/13 01:18:13;;;;;;;0.10;0.10;;;;;;;11.79;74.54;97735.06;5066995;28;20431;-72
2023/05/13 01:20:42;;;;;;;0.47;0.47;;;;;;;11.85;73.71;97726.22;5065486;28;20076;-72
2023/05/13 01:23:12;;;;;;;0.52;0.52;;;;;;;11.91;73.16;97723.59;5063239;28;20102;-73
2023/05/13 01:25:40;;;;;;;0.70;0.70;;;;;;;11.83;73.57;97728.31;5069276;28;20110;-72
2023/05/13 01:28:08;;;;;;;0.70;0.70;;;;;;;11.78;74.14;97728.88;5065935;28;20118;-72
2023/05/13 01:30:39;;;;;;;0.45;0.45;;;;;;;11.79;74.20;97730.53;5069340;28;20052;-72
2023/05/13 01:33:08;;;;;;;0.60;0.60;;;;;;;11.81;74.05;97733.03;5066863;28;20049;-72
2023/05/13 01:35:36;;;;;;;0.80;0.80;;;;;;;11.68;74.47;97726.56;5067020;28;20052;-73
2023/05/13 01:38:04;;;;;;;0.57;0.57;;;;;;;11.44;75.68;97736.88;5066566;28;20036;-72
2023/05/13 01:40:34;;;;;;;0.63;0.63;;;;;;;11.13;76.81;97732.78;5067597;28;20094;-73
2023/05/13 01:43:05;;;;;;;0.60;0.60;;;;;;;11.06;77.38;97733.75;5063987;28;20722;-72
2023/05/13 01:45:33;;;;;;;0.70;0.70;;;;;;;11.11;76.66;97729.47;5071832;28;20036;-72
2023/05/13 01:48:01;;;;;;;0.60;0.60;;;;;;;11.32;75.65;97733.94;5065088;28;20060;-74
2023/05/13 01:50:38;;;;;;;0.52;0.52;;;;;;;11.21;76.26;97737.97;5060738;28;20140;-73
2023/05/13 01:53:06;;;;;;;0.55;0.55;;;;;;;11.19;75.79;97734.69;5069641;28;20033;-74
2023/05/13 01:55:38;;;;;;;0.80;0.80;;;;;;;11.17;76.01;97733.22;5069540;28;20052;-74
2023/05/13 01:58:05;;;;;;;0.70;0.70;;;;;;;11.14;76.24;97736.28;5066400;28;20163;-72
2023/05/13 02:00:33;;;;;;;0.65;0.65;;;;;;;11.02;76.79;97735.97;5070026;28;20067;-74
2023/05/13 02:03:00;;;;;;;0.68;0.68;;;;;;;10.98;76.77;97735.56;5062186;28;20453;-74
2023/05/13 02:05:30;;;;;;;0.60;0.60;;;;;;;10.95;76.79;97730.59;5069914;28;20044;-74
2023/05/13 02:07:58;;;;;;;0.55;0.55;;;;;;;11.22;75.35;97730.78;5065463;28;20041;-74
2023/05/13 02:10:25;;;;;;;0.30;0.30;;;;;;;11.13;75.89;97730.13;5061402;28;20430;-74
2023/05/13 02:12:54;;;;;;;0.80;0.80;;;;;;;11.03;76.25;97730.44;5069667;28;20499;-74
2023/05/13 02:15:22;;;;;;;0.70;0.70;;;;;;;11.11;76.37;97732.16;5065872;28;20175;-74
2023/05/13 02:17:49;;;;;;;0.60;0.60;;;;;;;11.12;76.31;97727.63;5069751;28;20051;-74
2023/05/13 02:20:17;;;;;;;0.50;0.50;;;;;;;11.02;76.46;97725.31;5067909;28;20051;-74
2023/05/13 02:22:45;;;;;;;0.57;0.57;;;;;;;11.01;76.39;97731.66;5064108;28;21333;-74
2023/05/13 02:25:13;;;;;;;0.43;0.43;;;;;;;10.91;76.43;97736.50;5069942;28;20048;-74
2023/05/13 02:27:40;;;;;;;0.88;0.88;;;;;;;11.04;75.25;97728.59;5068158;28;20090;-74
2023/05/13 02:30:10;;;;;;;0.47;0.47;;;;;;;11.04;74.88;97725.94;5067720;28;20040;-74
2023/05/13 02:32:41;;;;;;;0.57;0.57;;;;;;;10.88;75.60;97726.25;5067823;28;20041;-73
2023/05/13 02:35:09;;;;;;;0.40;0.40;;;;;;;10.85;76.45;97723.94;5071794;28;20063;-73
2023/05/13 02:37:37;;;;;;;0.68;0.68;;;;;;;10.88;76.27;97726.25;5068012;28;20044;-73
2023/05/13 02:40:06;;;;;;;0.68;0.68;;;;;;;11.04;75.67;97731.28;5071582;28;20062;-74
2023/05/13 02:42:33;;;;;;;0.90;0.90;;;;;;;10.97;75.50;97725.91;5068707;28;20044;-74
2023/05/13 02:45:01;;;;;;;0.70;0.70;;;;;;;10.78;76.63;97733.75;5066850;28;20047;-73
2023/05/13 02:47:33;;;;;;;0.70;0.70;;;;;;;10.70;76.31;97724.00;5070110;28;20044;-74
2023/05/13 02:50:06;;;;;;;0.52;0.52;;;;;;;10.72;76.29;97721.97;5069405;28;20551;-73
2023/05/13 02:52:34;;;;;;;0.73;0.73;;;;;;;10.95;75.33;97722.59;5080983;28;20044;-74
2023/05/13 02:55:03;;;;;;;0.60;0.60;;;;;;;11.02;75.03;97722.63;5081214;28;20040;-74
2023/05/13 02:57:30;;;;;;;0.70;0.70;;;;;;;10.80;75.43;97721.00;5061568;28;20120;-73
2023/05/13 02:59:58;;;;;;;0.57;0.57;;;;;;;10.81;75.77;97714.66;5069126;28;20040;-73
2023/05/13 03:02:26;;;;;;;0.82;0.82;;;;;;;10.68;76.54;97714.56;5068859;28;20068;-73
2023/05/13 03:04:56;;;;;;;0.60;0.60;;;;;;;10.63;76.35;97718.63;5062864;28;20496;-73
2023/05/13 03:07:23;;;;;;;0.55;0.55;;;;;;;10.34;77.31;97721.44;5060904;28;20098;-74
2023/05/13 03:09:51;;;;;;;0.88;0.88;;;;;;;10.30;78.59;97725.47;5068218;28;20098;-73
2023/05/13 03:12:18;;;;;;;0.10;0.10;;;;;;;10.43;78.41;97716.78;5066007;28;20353;-73
2023/05/13 03:14:47;;;;;;;0.70;0.70;;;;;;;10.40;78.49;97712.66;5068693;28;20132;-73
2023/05/13 03:17:15;;;;;;;0.70;0.70;;;;;;;10.57;77.31;97713.25;5062678;28;20045;-73
2023/05/13 03:19:43;;;;;;;0.65;0.65;;;;;;;10.53;75.78;97712.78;5066867;28;20040;-74
2023/05/13 03:22:11;;;;;;;0.60;0.60;;;;;;;10.60;74.79;97710.16;5066894;28;20503;-74
2023/05/13 03:24:40;;;;;;;0.70;0.70;;;;;;;10.42;76.47;97715.13;5062852;28;20041;-74
2023/05/13 03:27:08;;;;;;;0.73;0.73;;;;;;;10.40;76.91;97706.50;5067044;28;20051;-73
2023/05/13 03:29:38;;;;;;;0.68;0.68;;;;;;;10.25;78.10;97726.06;5069349;28;20043;-74
2023/05/13 03:32:07;;;;;;;0.60;0.60;;;;;;;10.25;78.08;97717.25;5064609;28;20040;-74
2023/05/13 03:34:36;;;;;;;0.90;0.90;;;;;;;10.05;79.86;97710.84;5061398;28;20041;-74
2023/05/13 03:37:04;;;;;;;0.50;0.50;;;;;;;10.09;79.36;97715.59;5066968;28;20514;-74
2023/05/13 03:39:33;;;;;;;0.52;0.52;;;;;;;10.04;79.23;97726.00;5067232;28;20072;-73
2023/05/13 03:42:01;;;;;;;0.63;0.63;;;;;;;10.18;78.13;97719.00;5065850;28;20059;-74
2023/05/13 03:44:29;;;;;;;0.57;0.57;;;;;;;10.18;78.26;97722.47;5069591;28;20124;-73
2023/05/13 03:46:56;;;;;;;0.77;0.77;;;;;;;10.06;78.62;97715.16;5068708;28;20114;-73
2023/05/13 03:49:24;;;;;;;0.70;0.70;;;;;;;9.89;79.56;97722.53;5068700;28;20103;-74
2023/05/13 03:51:52;;;;;;;0.68;0.68;;;;;;;9.93;79.71;97723.81;5067279;28;20041;-74
2023/05/13 03:54:20;;;;;;;0.85;0.85;;;;;;;10.09;78.81;97730.75;5067285;28;20176;-74
2023/05/13 03:56:48;;;;;;;0.50;0.50;;;;;;;10.19;78.38;97726.81;5068377;28;20048;-74
2023/05/13 03:59:16;;;;;;;0.70;0.70;;;;;;;10.24;78.12;97726.25;5071275;28;20048;-72
2023/05/13 04:01:43;;;;;;;0.57;0.57;;;;;;;10.12;78.48;97725.06;5071914;28;20119;-74
2023/05/13 04:04:11;;;;;;;0.70;0.70;;;;;;;10.03;78.84;97734.19;5069771;28;20059;-74
2023/05/13 04:06:39;;;;;;;0.95;0.95;;;;;;;9.81;79.77;97738.63;5069270;28;20450;-72
2023/05/13 04:09:06;;;;;;;0.10;0.10;;;;;;;9.83;79.29;97737.44;5066444;28;20553;-73
2023/05/13 04:11:35;;;;;;;0.77;0.77;;;;;;;9.89;78.83;97730.53;5068588;28;20047;-74
2023/05/13 04:14:03;;;;;;;0.50;0.50;;;;;;;9.82;78.83;97730.47;5061246;28;20044;-74
2023/05/13 04:16:34;;;;;;;0.60;0.60;;;;;;;9.72;79.37;97739.75;5069470;28;20043;-74
2023/05/13 04:19:05;;;;;;;0.68;0.68;;;;;;;9.63;79.36;97739.03;5067456;28;20055;-72
2023/05/13 04:21:32;;;;;;;0.50;0.50;;;;;;;9.45;79.81;97750.03;5070466;28;20105;-72
2023/05/13 04:24:00;;;;;;;0.63;0.63;;;;;;;9.40;80.03;97740.97;5065193;28;20500;-72
2023/05/13 04:26:28;;;;;;;0.75;0.75;;;;;;;9.23;80.51;97736.84;5070445;28;20044;-74
2023/05/13 04:28:55;;;;;;;0.63;0.63;;;;;;;9.23;80.93;97742.16;5067789;28;20036;-73
2023/05/13 04:31:24;;;;;;;0.75;0.75;;;;;;;9.26;80.40;97739.94;5068497;28;20080;-74
2023/05/13 04:33:52;;;;;;;0.80;0.80;;;;;;;9.28;80.51;97742.41;5068748;28;20044;-73
2023/05/13 04:36:19;;;;;;;0.77;0.77;;;;;;;9.32;80.53;97757.03;5069030;28;20173;-74
2023/05/13 04:38:47;;;;;;;0.60;0.60;;;;;;;9.49;80.07;97751.34;5071834;28;20045;-74
2023/05/13 04:41:16;;;;;;;0.73;0.73;;;;;;;9.58;79.42;97752.91;5065665;28;20049;-74
2023/05/13 04:43:45;;;;;;;0.65;0.65;;;;;;;9.48;80.10;97765.66;5070578;28;20044;-73
2023/05/13 04:46:13;;;;;;;0.57;0.57;;;;;;;9.49;80.22;97763.84;5071928;28;20192;-73
2023/05/13 04:48:46;;;;;;;0.60;0.60;;;;;;;9.64;79.57;97762.00;5071448;28;20499;-74
2023/05/13 04:51:15;;;;;;;0.65;0.65;;;;;;;9.82;78.73;97761.63;5072531;28;20041;-74
2023/05/13 04:53:43;;;;;;;0.57;0.57;;;;;;;9.71;78.71;97760.25;5067697;28;20047;-74
2023/05/13 04:56:11;;;;;;;0.50;0.50;;;;;;;9.59;79.17;97764.38;5068239;28;20128;-74
2023/05/13 04:58:39;;;;;;;0.77;0.77;;;;;;;9.53;79.50;97770.47;5069461;28;20048;-73
2023/05/13 05:01:07;;;;;;;0.57;0.57;;;;;;;9.57;79.24;97766.41;5069011;28;20041;-74
2023/05/13 05:03:35;;;;;;;0.70;0.70;;;;;;;9.58;79.32;97771.56;5069542;28;20048;-74
2023/05/13 05:06:05;;;;;;;0.85;0.85;;;;;;;9.75;78.91;97768.72;5069867;28;20123;-74
2023/05/13 05:08:33;;;;;;;0.63;0.63;;;;;;;9.87;78.54;97775.19;5069943;28;20052;-74
2023/05/13 05:11:00;;;;;;;0.65;0.65;;;;;;;9.79;78.91;97776.13;5067752;28;20045;-73
2023/05/13 05:13:29;;;;;;;0.80;0.80;;;;;;;9.81;78.99;97776.78;5069173;28;20068;-73
2023/05/13 05:15:57;;;;;;;0.80;0.80;;;;;;;9.94;78.37;97768.13;5067163;28;20120;-74
2023/05/13 05:18:25;;;;;;;1.02;1.02;;;;;;;9.98;78.03;97776.56;5070768;28;20504;-74
2023/05/13 05:20:52;;;;;;;0.60;0.60;;;;;;;9.87;78.63;97769.88;5070088;28;20037;-73
2023/05/13 05:23:22;;;;;;;0.70;0.70;;;;;;;9.89;78.69;97773.19;5067382;28;20047;-74
2023/05/13 05:25:51;;;;;;;0.75;0.75;;;;;;;9.88;78.87;97771.53;5066829;28;20036;-73
2023/05/13 05:28:33;;;;;;;0.38;0.35;;;;;;;9.84;79.06;97768.44;5067692;28;20463;-73
2023/05/13 05:31:00;;;;;;;0.68;0.68;;;;;;;9.91;79.24;97771.16;5066171;28;20041;-74
2023/05/13 05:33:30;;;;;;;0.70;0.70;;;;;;;10.12;78.45;97768.56;5066074;28;20044;-74
2023/05/13 05:35:59;;;;;;;0.88;0.88;;;;;;;10.18;78.04;97777.66;5070243;28;20040;-74
2023/05/13 05:38:28;;;;;;;0.10;0.10;;;;;;;10.03;78.95;97774.19;5069118;28;20415;-73
2023/05/13 05:40:57;;;;;;;0.60;0.60;;;;;;;10.14;78.74;97776.38;5066431;28;20064;-74
2023/05/13 05:43:25;;;;;;;0.80;0.80;;;;;;;10.40;77.50;97771.34;5069980;28;20136;-74
2023/05/13 05:45:53;;;;;;;0.20;0.20;;;;;;;10.30;78.04;97774.31;5071481;28;20506;-73
2023/05/13 05:48:21;;;;;;;0.70;0.70;;;;;;;10.50;77.39;97774.53;5066179;28;20045;-74
2023/05/13 05:50:49;;;;;;;0.57;0.57;;;;;;;10.49;77.14;97775.56;5068666;28;20044;-73
2023/05/13 05:53:24;;;;;;;1.10;0.75;;;;;;;10.50;77.20;97768.38;5066947;28;20045;-74
2023/05/13 05:55:53;;;;;;;0.50;0.50;;;;;;;10.53;77.25;97770.66;5069529;28;20135;-74
2023/05/13 05:58:21;;;;;;;0.85;0.85;;;;;;;10.71;76.83;97771.06;5082904;28;20048;-74
2023/05/13 06:00:50;;;;;;;0.57;0.57;;;;;;;10.95;76.46;97768.00;5069852;28;20068;-74
2023/05/13 06:03:18;;;;;;;0.70;0.70;;;;;;;11.06;76.03;97761.31;5066621;28;20067;-74
2023/05/13 06:05:46;;;;;;;0.30;0.30;;;;;;;11.14;75.81;97763.00;5062173;28;20388;-74
2023/05/13 06:08:13;;;;;;;0.75;0.75;;;;;;;11.24;75.42;97766.16;5063398;28;20040;-74
2023/05/13 06:10:41;;;;;;;0.90;0.90;;;;;;;11.35;75.41;97768.28;5069458;28;20044;-73
2023/05/13 06:13:11;;;;;;;0.68;0.68;;;;;;;11.50;74.76;97768.19;5060271;28;20136;-73
2023/05/13 06:15:38;;;;;;;0.20;0.20;;;;;;;11.64;73.79;97764.56;5068137;28;20503;-73
2023/05/13 06:18:06;;;;;;;0.60;0.60;;;;;;;11.79;73.95;97769.81;5069555;28;20068;-72
2023/05/13 06:20:34;;;;;;;0.10;0.10;;;;;;;11.88;73.38;97764.13;5068227;28;20434;-72
2023/05/13 06:23:02;;;;;;;0.60;0.60;;;;;;;11.90;73.18;97764.75;5067125;28;20048;-72
2023/05/13 06:25:29;;;;;;;0.80;0.80;;;;;;;12.00;73.46;97770.56;5069279;28;20282;-73
2023/05/13 06:27:57;;;;;;;0.70;0.70;;;;;;;12.05;73.02;97770.75;5067344;28;20139;-72
2023/05/13 06:30:28;;;;;;;0.80;0.80;;;;;;;12.07;73.12;97771.41;5065887;28;20045;-73
2023/05/13 06:32:56;;;;;;;0.60;0.60;;;;;;;12.21;72.97;97769.59;5068080;28;20102;-72
2023/05/13 06:35:29;;;;;;;0.98;0.98;;;;;;;12.32;72.37;97765.53;5069428;28;20054;-72
2023/05/13 06:37:58;;;;;;;0.10;0.10;;;;;;;12.46;69.32;97762.66;5062009;28;20408;-73
2023/05/13 06:40:25;;;;;;;0.50;0.50;;;;;;;12.62;68.28;97758.81;5065550;28;20045;-72
2023/05/13 06:42:54;;;;;;;0.47;0.47;;;;;;;12.82;65.09;97759.66;5062555;28;20037;-72
2023/05/13 06:45:30;;;;;;;0.68;0.68;;;;;;;13.06;65.54;97762.75;5066815;28;20049;-72
2023/05/13 06:47:57;;;;;;;0.57;0.57;;;;;;;13.27;64.29;97764.44;5063984;28;20056;-73
2023/05/13 06:50:25;;;;;;;0.17;0.17;;;;;;;13.45;63.52;97760.09;5068910;28;20404;-73
2023/05/13 06:52:53;;;;;;;0.45;0.45;;;;;;;13.68;62.45;97766.84;5069496;28;20040;-73
2023/05/13 06:55:20;;;;;;;0.60;0.60;;;;;;;13.86;61.71;97761.63;5068273;28;20037;-73
2023/05/13 06:57:48;;;;;;;0.65;0.65;;;;;;;14.03;59.75;97756.59;5065519;28;20147;-73
2023/05/13 07:00:16;;;;;;;0.20;0.20;;;;;;;14.15;59.64;97763.78;5067064;28;20410;-73
2023/05/13 07:02:45;;;;;;;0.65;0.65;;;;;;;14.26;59.07;97763.13;5061069;28;20102;-73
2023/05/13 07:05:13;;;;;;;0.70;0.70;;;;;;;14.38;58.92;97760.59;5067794;28;21349;-73
2023/05/13 07:07:42;;;;;;;0.68;0.68;;;;;;;14.48;58.92;97747.56;5067821;28;20076;-73
2023/05/13 07:10:10;;;;;;;0.52;0.52;;;;;;;14.64;58.24;97752.41;5069404;28;20044;-73
2023/05/13 07:12:37;;;;;;;0.57;0.57;;;;;;;14.83;58.40;97757.88;5068074;28;20041;-73
2023/05/13 07:15:06;;;;;;;0.68;0.68;;;;;;;14.95;57.83;97751.56;5069512;28;20052;-73
2023/05/13 07:17:34;;;;;;;0.63;0.63;;;;;;;15.07;56.89;97752.50;5066840;28;20087;-73
2023/05/13 07:20:03;;;;;;;0.55;0.55;;;;;;;15.19;56.60;97757.19;5067587;28;20036;-73
2023/05/13 07:22:30;;;;;;;0.63;0.63;;;;;;;15.38;57.08;97756.19;5065074;28;20049;-73
2023/05/13 07:24:58;;;;;;;0.50;0.50;;;;;;;15.30;56.43;97745.69;5068910;28;20086;-73
2023/05/13 07:27:25;;;;;;;0.60;0.60;;;;;;;15.48;55.98;97748.41;5069455;28;20063;-73
2023/05/13 07:29:54;;;;;;;0.50;0.50;;;;;;;15.61;55.92;97748.31;5069995;28;20552;-73
2023/05/13 07:32:21;;;;;;;0.20;0.20;;;;;;;15.74;55.49;97747.38;5071160;28;20434;-73
2023/05/13 07:34:49;;;;;;;0.50;0.50;;;;;;;15.86;54.72;97739.38;5074238;28;20044;-73
2023/05/13 07:37:18;;;;;;;0.52;0.52;;;;;;;15.88;54.13;97745.38;5068318;28;20068;-73
2023/05/13 07:39:46;;;;;;;0.55;0.55;;;;;;;16.19;54.27;97742.50;5073205;28;20070;-73
2023/05/13 07:42:14;;;;;;;0.50;0.50;;;;;;;16.46;52.80;97732.19;5074342;28;20040;-73
2023/05/13 07:44:41;;;;;;;0.57;0.57;;;;;;;16.39;51.58;97739.53;5070821;28;20052;-73
2023/05/13 07:47:09;;;;;;;0.45;0.38;;;;;;;16.60;51.33;97738.22;5068257;28;20083;-73
2023/05/13 07:49:36;;;;;;;0.60;0.60;;;;;;;16.81;50.33;97740.44;5063525;28;20119;-73
2023/05/13 07:52:04;;;;;;;0.52;0.52;;;;;;;16.97;50.03;97744.31;5071301;28;20033;-73
2023/05/13 07:54:33;;;;;;;0.55;0.55;;;;;;;17.09;49.26;97740.59;5071722;28;20102;-73
2023/05/13 07:57:01;;;;;;;0.20;0.20;;;;;;;17.13;48.77;97741.75;5068387;28;20522;-73
2023/05/13 07:59:29;;;;;;;0.40;0.40;;;;;;;17.30;48.35;97735.69;5070423;28;20566;-73
2023/05/13 08:01:56;;;;;;;0.60;0.60;;;;;;;17.35;48.19;97725.00;5071353;28;20311;-73
2023/05/13 08:04:24;;;;;;;0.47;0.47;;;;;;;17.39;47.93;97732.41;5073310;28;20138;-74
2023/05/13 08:06:52;;;;;;;0.13;0.13;;;;;;;17.58;47.38;97730.41;5067232;28;20399;-73
2023/05/13 08:09:20;;;;;;;0.40;0.40;;;;;;;17.65;46.57;97730.31;5070734;28;20044;-73
2023/05/13 08:11:49;;;;;;;0.10;0.10;;;;;;;17.85;46.71;97720.78;5070497;28;20445;-73
2023/05/13 08:14:16;;;;;;;0.50;0.50;;;;;;;17.97;45.91;97718.84;5063937;28;20045;-73
2023/05/13 08:16:44;;;;;;;0.50;0.50;;;;;;;18.04;44.94;97724.16;5071485;28;20549;-73
2023/05/13 08:19:13;;;;;;;0.40;0.40;;;;;;;18.11;44.64;97730.22;5062366;28;20060;-73
2023/05/13 08:21:41;;;;;;;0.50;0.50;;;;;;;17.95;44.57;97726.41;5072117;28;20072;-73
2023/05/13 08:24:09;;;;;;;0.40;0.40;;;;;;;18.17;44.71;97723.84;5064177;28;20106;-73
2023/05/13 08:26:37;;;;;;;0.43;0.43;;;;;;;18.21;44.98;97727.72;5071718;28;20053;-73
2023/05/13 08:29:06;;;;;;;0.55;0.55;;;;;;;18.37;44.51;97725.34;5070034;28;20086;-73
2023/05/13 08:31:34;;;;;;;0.60;0.60;;;;;;;18.60;44.56;97719.84;5073217;28;20048;-73
2023/05/13 08:34:01;;;;;;;0.45;0.45;;;;;;;18.74;44.96;97721.19;5091581;22;20044;-70
2023/05/13 08:36:29;;;;;;;0.40;0.40;;;;;;;18.94;44.70;97718.00;5053571;28;20054;-70
2023/05/13 08:38:56;;;;;;;0.43;0.43;;;;;;;18.96;43.99;97730.25;5066201;28;20090;-70
2023/05/13 08:41:24;;;;;;;0.50;0.50;;;;;;;19.09;43.32;97736.41;5063956;28;20459;-70
2023/05/13 08:43:52;;;;;;;0.40;0.40;;;;;;;19.21;43.60;97740.66;5058147;28;20098;-70
2023/05/13 08:46:24;;;;;;;0.52;0.52;;;;;;;19.05;42.71;97731.47;5055737;28;20038;-70
2023/05/13 08:48:53;;;;;;;0.30;0.30;;;;;;;19.14;42.40;97741.88;5054701;28;20033;-70
2023/05/13 08:51:21;;;;;;;0.60;0.60;;;;;;;19.19;42.67;97739.28;5055520;28;20124;-70
2023/05/13 08:53:49;;;;;;;0.40;0.40;;;;;;;19.10;43.00;97738.88;5051019;28;20098;-70
2023/05/13 08:56:17;;;;;;;0.52;0.52;;;;;;;19.02;42.11;97741.94;5058105;28;20045;-68
2023/05/13 08:58:44;;;;;;;0.52;0.52;;;;;;;19.06;42.34;97741.22;5054104;28;20491;-69
2023/05/13 09:01:12;;;;;;;0.10;0.10;;;;;;;19.01;42.56;97738.41;5055020;28;20412;-69
2023/05/13 09:03:50;;;;;;;0.35;0.35;;;;;;;19.00;42.61;97744.06;5053690;28;20053;-69
2023/05/13 09:06:17;;;;;;;0.40;0.40;;;;;;;18.87;43.48;97750.66;5059257;28;20046;-70
2023/05/13 09:08:45;;;;;;;0.50;0.50;;;;;;;18.77;43.56;97745.06;5051882;28;20037;-70
2023/05/13 09:11:12;;;;;;;0.52;0.52;;;;;;;18.79;44.04;97750.22;5062550;28;20040;-69
2023/05/13 09:13:41;;;;;;;0.40;0.40;;;;;;;18.65;44.17;97753.22;5047628;28;20052;-70
2023/05/13 09:16:09;;;;;;;0.47;0.47;;;;;;;18.77;44.51;97749.63;5061528;28;20070;-70
2023/05/13 09:18:37;;;;;;;0.30;0.30;;;;;;;18.73;44.20;97745.75;5052011;28;20115;-70
2023/05/13 09:21:25;;;;;;;0.45;0.45;;;;;;;18.89;44.83;97743.09;5037714;28;20049;-70
2023/05/13 09:23:56;;;;;;;0.32;0.32;;;;;;;18.94;44.69;97739.66;5046293;28;20041;-70
2023/05/13 09:26:27;;;;;;;0.40;0.40;;;;;;;18.97;44.31;97740.00;5051260;28;20103;-71
2023/05/13 09:29:17;;;;;;;0.43;0.43;;;;;;;19.03;43.74;97735.47;5052339;28;20048;-68
2023/05/13 09:31:45;;;;;;;0.50;0.50;;;;;;;19.05;43.86;97726.06;5054649;28;20048;-71
2023/05/13 09:34:13;;;;;;;0.40;0.40;;;;;;;19.01;44.19;97735.72;5053276;28;20128;-71
2023/05/13 09:36:42;;;;;;;0.47;0.47;;;;;;;18.87;43.74;97730.88;5048936;28;20041;-68
2023/05/13 09:39:11;;;;;;;0.10;0.10;;;;;;;18.88;43.48;97732.53;5052155;28;20456;-71
2023/05/13 09:41:38;;;;;;;0.32;0.32;;;;;;;18.92;43.40;97733.66;5051762;28;20049;-71
2023/05/13 09:44:08;;;;;;;0.10;0.10;;;;;;;18.94;43.72;97729.66;5040639;28;20479;-71
2023/05/13 09:46:35;;;;;;;0.38;0.38;;;;;;;18.92;43.37;97728.25;5044129;28;20045;-71
2023/05/13 09:49:04;;;;;;;0.30;0.30;;;;;;;18.82;43.04;97726.19;5045452;28;20404;-71
2023/05/13 09:51:32;;;;;;;0.40;0.40;;;;;;;18.75;42.78;97727.41;5049427;28;20041;-71
2023/05/13 09:54:05;;;;;;;0.55;0.55;;;;;;;18.47;43.35;97722.81;5048658;28;20094;-71
2023/05/13 09:56:35;;;;;;;0.00;0.00;;;;;;;18.44;43.90;97732.22;5045113;28;20443;-70
2023/05/13 09:59:03;;;;;;;0.40;0.40;;;;;;;18.22;44.45;97731.25;5050151;28;20114;-71
2023/05/13 10:01:30;;;;;;;0.08;0.08;;;;;;;18.09;45.07;97736.91;5055703;28;20415;-68
2023/05/13 10:03:58;;;;;;;0.40;0.40;;;;;;;18.10;45.19;97736.69;5051005;28;20385;-71
2023/05/13 10:06:28;;;;;;;0.35;0.35;;;;;;;18.04;45.40;97736.84;5059386;28;20499;-69
2023/05/13 10:08:58;;;;;;;0.50;0.50;;;;;;;18.00;45.39;97730.25;5049185;28;20036;-69
2023/05/13 10:11:27;;;;;;;0.50;0.50;;;;;;;17.87;45.94;97737.56;5050102;28;20048;-70
2023/05/13 10:13:58;;;;;;;0.40;0.40;;;;;;;17.77;46.22;97741.91;5044199;28;20120;-69
2023/05/13 10:16:27;;;;;;;0.50;0.50;;;;;;;17.79;46.63;97745.19;5052928;28;20063;-69
2023/05/13 10:18:57;;;;;;;0.30;0.30;;;;;;;17.74;46.88;97745.94;5050007;28;20500;-69
2023/05/13 10:21:25;;;;;;;0.60;0.60;;;;;;;17.57;47.11;97744.94;5049547;28;20400;-69
2023/05/13 10:23:53;;;;;;;0.50;0.50;;;;;;;17.48;47.71;97740.97;5051248;28;20055;-69
2023/05/13 10:26:20;;;;;;;0.50;0.50;;;;;;;17.44;47.98;97746.00;5046060;28;20037;-69
2023/05/13 10:28:50;;;;;;;0.50;0.50;;;;;;;17.43;47.89;97746.25;5052792;28;20040;-69
2023/05/13 10:31:18;;;;;;;0.47;0.47;;;;;;;17.36;47.98;97742.84;5046334;28;20099;-69
2023/05/13 10:33:45;;;;;;;0.38;0.38;;;;;;;17.32;48.36;97736.28;5046669;28;20045;-69
2023/05/13 10:36:26;;;;;;;0.10;0.10;;;;;;;17.32;48.39;97733.59;5043832;28;20409;-69
2023/05/13 10:39:06;;;;;;;0.50;0.50;;;;;;;17.27;48.83;97736.16;5047787;28;20037;-69
2023/05/13 10:42:19;;;;;;;0.50;0.50;;;;;;;17.34;48.72;97744.97;5046206;28;20091;-70
2023/05/13 10:44:53;;;;;;;0.40;0.40;;;;;;;17.30;48.37;97744.59;5007397;28;20052;-70
2023/05/13 10:47:21;;;;;;;0.40;0.40;;;;;;;16.98;48.24;97733.31;5048787;28;20098;-70
2023/05/13 10:49:50;;;;;;;0.40;0.40;;;;;;;16.74;50.86;97745.06;5048483;28;20037;-70
2023/05/13 10:52:18;;;;;;;0.40;0.40;;;;;;;16.38;52.73;97756.75;5057331;28;20062;-70
2023/05/13 10:55:01;;;;;;;0.40;0.40;;;;;;;16.45;53.23;97747.53;5047311;28;20146;-70
2023/05/13 10:57:29;;;;;;;0.43;0.43;;;;;;;16.44;52.62;97747.75;5054008;28;20115;-70
2023/05/13 11:00:15;;;;;;;0.35;0.35;;;;;;;16.34;53.25;97748.31;5061008;28;20064;-70
2023/05/13 11:02:43;;;;;;;0.40;0.40;;;;;;;16.46;52.81;97741.09;5052939;28;20044;-69
2023/05/13 11:05:19;;;;;;;0.57;0.57;;;;;;;16.43;53.25;97749.63;5053168;28;20091;-69
2023/05/13 11:07:55;;;;;;;0.60;0.60;;;;;;;16.72;52.36;97753.38;5044236;28;20048;-69
2023/05/13 11:10:26;;;;;;;0.50;0.50;;;;;;;16.85;52.25;97757.78;5056716;28;20088;-70
2023/05/13 11:13:23;;;;;;;0.35;0.35;;;;;;;16.86;51.61;97749.44;5052761;28;20510;-70
2023/05/13 11:15:53;;;;;;;0.50;0.50;;;;;;;16.99;50.39;97753.81;5046258;28;20040;-70
2023/05/13 11:18:29;;;;;;;0.32;0.32;;;;;;;17.16;49.70;97753.97;5054579;28;20029;-69
2023/05/13 11:21:02;;;;;;;0.40;0.40;;;;;;;17.33;48.73;97752.25;5051872;28;20041;-70
2023/05/13 11:23:33;;;;;;;0.20;0.20;;;;;;;17.47;48.45;97752.81;5051183;28;20407;-69
2023/05/13 11:26:12;;;;;;;0.30;0.30;;;;;;;17.49;47.62;97748.84;5053567;28;20542;-69
2023/05/13 11:28:58;;;;;;;0.35;0.35;;;;;;;17.58;47.14;97749.28;5054028;28;20049;-72
2023/05/13 11:31:28;;;;;;;0.40;0.40;;;;;;;17.67;46.54;97742.50;5044770;28;20049;-69
2023/05/13 11:34:06;;;;;;;0.30;0.30;;;;;;;17.90;46.71;97752.47;5048643;28;20049;-69
2023/05/13 11:36:34;;;;;;;0.60;0.60;;;;;;;17.99;45.08;97745.63;5051699;28;20048;-69
2023/05/13 11:39:07;;;;;;;0.43;0.43;;;;;;;18.00;43.81;97747.28;5053561;28;20067;-69
2023/05/13 11:41:35;;;;;;;;;;;;;;;17.88;43.76;97741.06;5052310;28;20514;-69
2023/05/13 11:44:04;;;;;;;0.57;0.57;;;;;;;17.76;44.58;97749.19;5053921;28;19970;-69